TAF KSTS
AMD KSTS 080257Z 0803/0824 00000KT 6SM BR OVC005 FM080900 00000KT 4SM BR OVC003 FM081200 00000KT 2SM BR OVC003 FM082000 25003KT 6SM HZ OVC015=
METAR KSTS
WC KSTS
WS KSTS
WV KSTS